Cottonwood, Oklahoma
Current Conditions -  °F | °C
As of 3:35 AM on Friday 28 Nov 2014 (Local Time) from KAQR Reporting Station
Clear Clear  
Wind Chill:   Ceiling: Unl
Heat Index:   Visibility: 10mi
Dew Point: -2°   Wind: 3mph
Humidity: 61%   Direction: 150°SSE
Pressure: 30.29"   Gusts: NA
Location:  34.5844°N, 96.2026°W
Report Text: KAQR 280935Z AUTO 15003KT 10SM CLR 05/M02 A3029 RMK AO2
Loading
Personal Weather Stations






























Interactive Weather Map New forecast layout! Learn more

10-Day Weather Forecast

Advertisements
Track Severe Weather on mobile